Time;durP1;ratioP1;P1;durP2;ratioP2;P2;SDS_P1;SDS_P2;PMS_P1;PMS_P2;Temp;Humidity;BMP_temperature;BMP_pressure;BME280_temperature;BME280_humidity;BME280_pressure;Samples;Min_cycle;Max_cycle;Signal;HPM_P1;HPM_P2
2021/03/17 00:01:46;;;;;;;4.00;1.60;;;;;;;;;;5075238;28;20553;-66
2021/03/17 00:04:31;;;;;;;3.20;1.50;;;;;;;;;;5062534;28;20052;-66
2021/03/17 00:07:14;;;;;;;3.28;1.50;;;;;;;;;;5080562;28;20181;-68
2021/03/17 00:09:59;;;;;;;4.30;1.48;;;;;;;;;;5086370;28;20052;-67
2021/03/17 00:12:43;;;;;;;4.30;1.73;;;;;;;;;;5088212;28;20048;-65
2021/03/17 00:15:28;;;;;;;3.70;1.63;;;;;;;;;;5088321;28;20044;-69
2021/03/17 00:18:13;;;;;;;3.80;1.45;;;;;;;;;;5086797;28;20959;-69
2021/03/17 00:20:57;;;;;;;3.38;1.50;;;;;;;;;;5088401;28;20044;-68
2021/03/17 00:23:41;;;;;;;5.35;1.42;;;;;;;;;;5088389;28;20493;-66
2021/03/17 00:26:25;;;;;;;4.00;1.50;;;;;;;;;;5088901;28;20048;-64
2021/03/17 00:29:09;;;;;;;4.55;1.55;;;;;;;;;;5086595;28;20056;-70
2021/03/17 00:31:53;;;;;;;3.60;1.50;;;;;;;;;;5088400;28;20497;-63
2021/03/17 00:34:37;;;;;;;3.83;1.65;;;;;;;;;;5079289;28;20456;-65
2021/03/17 00:37:21;;;;;;;3.30;1.50;;;;;;;;;;5071171;28;20127;-62
2021/03/17 00:40:06;;;;;;;3.00;1.42;;;;;;;;;;5086747;28;20140;-65
2021/03/17 00:42:54;;;;;;;3.15;1.48;;;;;;;;;;5079062;28;20131;-62
2021/03/17 00:45:38;;;;;;;4.60;1.50;;;;;;;;;;5086677;28;20052;-64
2021/03/17 00:48:12;;;;;;;4.22;1.52;;;;;;;;;;5063455;28;20048;-67
2021/03/17 00:50:41;;;;;;;3.00;1.35;;;;;;;;;;5086028;28;20073;-62
2021/03/17 00:53:06;;;;;;;4.40;1.42;;;;;;;;;;5088027;28;20041;-69
2021/03/17 00:55:32;;;;;;;2.70;1.10;;;;;;;;;;5069026;28;20816;-69
2021/03/17 00:58:08;;;;;;;3.67;1.35;;;;;;;;;;5084687;28;20068;-69
2021/03/17 01:00:34;;;;;;;3.00;1.40;;;;;;;;;;5086020;28;20041;-72
2021/03/17 01:02:59;;;;;;;4.18;1.60;;;;;;;;;;5087558;28;20040;-66
2021/03/17 01:05:25;;;;;;;3.58;1.38;;;;;;;;;;5087798;28;20036;-64
2021/03/17 01:07:50;;;;;;;3.70;1.40;;;;;;;;;;5059088;28;20478;-62
2021/03/17 01:10:22;;;;;;;2.55;1.17;;;;;;;;;;5088043;28;20041;-65
2021/03/17 01:12:48;;;;;;;3.35;1.23;;;;;;;;;;5069973;28;20044;-62
2021/03/17 01:15:16;;;;;;;3.92;1.40;;;;;;;;;;5076104;28;20036;-66
2021/03/17 01:17:41;;;;;;;4.50;1.58;;;;;;;;;;5088062;28;20123;-63
2021/03/17 01:20:07;;;;;;;3.20;1.45;;;;;;;;;;5088167;28;20041;-67
2021/03/17 01:22:33;;;;;;;4.00;1.42;;;;;;;;;;5080312;28;20147;-66
2021/03/17 01:24:58;;;;;;;3.30;1.40;;;;;;;;;;5086128;28;20045;-65
2021/03/17 01:27:24;;;;;;;3.20;1.23;;;;;;;;;;5102206;28;20044;-63
2021/03/17 01:29:49;;;;;;;2.53;1.33;;;;;;;;;;5087999;28;20032;-64
2021/03/17 01:32:15;;;;;;;2.97;1.48;;;;;;;;;;5066867;28;20044;-69
2021/03/17 01:34:40;;;;;;;5.25;1.30;;;;;;;;;;5078383;28;20048;-73
2021/03/17 01:37:05;;;;;;;2.15;1.10;;;;;;;;;;5088464;28;20056;-73
2021/03/17 01:39:31;;;;;;;2.63;1.30;;;;;;;;;;5079360;28;20037;-64
2021/03/17 01:41:56;;;;;;;5.60;1.65;;;;;;;;;;5081061;28;20707;-66
2021/03/17 01:44:22;;;;;;;4.07;1.33;;;;;;;;;;5088150;28;20054;-66
2021/03/17 01:46:47;;;;;;;2.90;1.20;;;;;;;;;;5087421;28;20047;-65
2021/03/17 01:49:13;;;;;;;3.85;1.30;;;;;;;;;;5087044;28;20047;-64
2021/03/17 01:51:38;;;;;;;4.18;1.50;;;;;;;;;;5077555;28;20648;-66
2021/03/17 01:54:05;;;;;;;3.03;1.20;;;;;;;;;;5085617;28;20172;-66
2021/03/17 01:56:31;;;;;;;3.45;1.27;;;;;;;;;;5068493;28;20044;-69
2021/03/17 01:58:56;;;;;;;2.83;1.08;;;;;;;;;;5066996;28;20049;-69
2021/03/17 02:01:21;;;;;;;2.63;0.80;;;;;;;;;;5050619;28;20044;-65
2021/03/17 02:03:47;;;;;;;2.08;0.80;;;;;;;;;;5059725;28;20048;-66
2021/03/17 02:06:13;;;;;;;2.95;1.00;;;;;;;;;;5085640;28;20478;-66
2021/03/17 02:08:40;;;;;;;2.88;0.80;;;;;;;;;;5086781;28;20041;-66
2021/03/17 02:11:06;;;;;;;2.63;0.80;;;;;;;;;;5077931;28;20838;-66
2021/03/17 02:14:20;;;;;;;3.75;0.95;;;;;;;;;;5058365;28;20103;-66
2021/03/17 02:16:57;;;;;;;1.75;0.57;;;;;;;;;;4963099;28;20050;-70
2021/03/17 02:19:50;;;;;;;2.25;0.98;;;;;;;;;;4988790;28;20501;-68
2021/03/17 02:22:53;;;;;;;2.08;0.80;;;;;;;;;;5068284;28;20044;-66
2021/03/17 02:25:30;;;;;;;1.58;0.60;;;;;;;;;;5067552;28;20476;-66
2021/03/17 02:28:08;;;;;;;2.70;0.90;;;;;;;;;;5086526;28;20040;-70
2021/03/17 02:31:05;;;;;;;1.75;0.75;;;;;;;;;;5076249;28;20040;-63
2021/03/17 02:33:40;;;;;;;2.58;0.90;;;;;;;;;;5078836;28;20048;-69
2021/03/17 02:36:25;;;;;;;2.55;1.00;;;;;;;;;;5086695;28;20122;-68
2021/03/17 02:38:57;;;;;;;2.10;0.77;;;;;;;;;;5076497;28;20052;-69
2021/03/17 02:41:25;;;;;;;2.88;1.17;;;;;;;;;;5060051;28;20056;-66
2021/03/17 02:43:53;;;;;;;3.03;1.10;;;;;;;;;;5062111;28;20040;-65
2021/03/17 02:46:19;;;;;;;2.25;0.88;;;;;;;;;;5076539;28;20044;-65
2021/03/17 02:49:21;;;;;;;4.15;1.02;;;;;;;;;;5063933;28;20040;-68
2021/03/17 02:51:48;;;;;;;;;;;;;;;;;;5070936;28;20094;-67
2021/03/17 02:54:13;;;;;;;4.45;1.15;;;;;;;;;;5067541;28;19927;-65
2021/03/17 02:56:43;;;;;;;2.67;0.90;;;;;;;;;;5084186;28;20062;-70
2021/03/17 02:59:08;;;;;;;2.35;1.15;;;;;;;;;;5076415;28;20040;-65
2021/03/17 03:01:34;;;;;;;2.47;0.75;;;;;;;;;;5076596;28;20049;-70
2021/03/17 03:03:59;;;;;;;3.92;1.27;;;;;;;;;;5059355;28;20041;-67
2021/03/17 03:06:25;;;;;;;3.70;1.42;;;;;;;;;;5084715;28;20186;-66
2021/03/17 03:08:51;;;;;;;3.95;1.38;;;;;;;;;;5077470;28;20036;-70
2021/03/17 03:11:16;;;;;;;2.22;0.95;;;;;;;;;;5074291;28;20706;-64
2021/03/17 03:13:42;;;;;;;2.55;1.05;;;;;;;;;;5058529;28;20051;-66
2021/03/17 03:16:07;;;;;;;3.40;1.13;;;;;;;;;;5057777;28;20811;-69
2021/03/17 03:18:33;;;;;;;3.28;0.98;;;;;;;;;;5083339;28;20174;-68
2021/03/17 03:20:59;;;;;;;3.47;1.00;;;;;;;;;;5084294;28;20131;-63
2021/03/17 03:23:24;;;;;;;1.80;1.00;;;;;;;;;;5062063;28;20040;-66
2021/03/17 03:25:50;;;;;;;3.58;1.20;;;;;;;;;;5041791;28;20036;-67
2021/03/17 03:28:16;;;;;;;3.17;1.10;;;;;;;;;;5042191;28;20033;-70
2021/03/17 03:30:46;;;;;;;2.38;1.10;;;;;;;;;;5083621;28;20048;-65
2021/03/17 03:33:12;;;;;;;4.75;1.15;;;;;;;;;;5067170;28;20618;-69
2021/03/17 03:35:38;;;;;;;2.05;0.82;;;;;;;;;;5074632;28;20094;-68
2021/03/17 03:38:07;;;;;;;1.67;0.80;;;;;;;;;;5064439;28;20545;-66
2021/03/17 03:40:33;;;;;;;2.10;1.08;;;;;;;;;;5053287;28;20080;-66
2021/03/17 03:42:58;;;;;;;3.78;1.13;;;;;;;;;;5059248;28;20964;-67
2021/03/17 03:45:24;;;;;;;3.75;1.10;;;;;;;;;;5078720;28;20044;-66
2021/03/17 03:47:49;;;;;;;2.95;1.00;;;;;;;;;;5081574;28;20048;-67
2021/03/17 03:50:17;;;;;;;2.75;0.90;;;;;;;;;;5062204;28;20037;-67
2021/03/17 03:52:54;;;;;;;2.38;0.80;;;;;;;;;;5089324;28;20052;-69
2021/03/17 03:55:23;;;;;;;3.92;1.02;;;;;;;;;;5088430;28;20075;-69
2021/03/17 03:57:48;;;;;;;2.83;0.93;;;;;;;;;;5071496;28;20076;-72
2021/03/17 04:00:17;;;;;;;2.28;0.90;;;;;;;;;;5068551;28;20048;-66
2021/03/17 04:02:44;;;;;;;3.75;0.95;;;;;;;;;;5066906;28;20045;-69
2021/03/17 04:05:12;;;;;;;2.85;1.00;;;;;;;;;;5070896;28;20098;-64
2021/03/17 04:07:39;;;;;;;2.25;1.00;;;;;;;;;;5087154;28;20044;-69
2021/03/17 04:10:07;;;;;;;1.95;0.95;;;;;;;;;;5065412;28;20120;-69
2021/03/17 04:12:37;;;;;;;2.45;0.98;;;;;;;;;;5089408;28;20052;-69
2021/03/17 04:15:02;;;;;;;3.63;1.02;;;;;;;;;;5064775;28;20047;-69
2021/03/17 04:17:56;;;;;;;2.72;1.02;;;;;;;;;;5070062;28;20128;-66
2021/03/17 04:20:26;;;;;;;3.97;1.05;;;;;;;;;;5063969;28;20142;-69
2021/03/17 04:22:51;;;;;;;2.42;0.93;;;;;;;;;;5064277;28;20037;-63
2021/03/17 04:25:17;;;;;;;1.65;0.73;;;;;;;;;;5062689;28;20036;-68
2021/03/17 04:27:44;;;;;;;3.15;1.02;;;;;;;;;;5061318;28;20044;-64
2021/03/17 04:30:09;;;;;;;2.75;0.80;;;;;;;;;;5061790;28;20037;-66
2021/03/17 04:32:35;;;;;;;3.13;0.98;;;;;;;;;;5061823;28;20498;-67
2021/03/17 04:35:00;;;;;;;2.47;1.00;;;;;;;;;;5070619;28;20045;-70
2021/03/17 04:37:28;;;;;;;2.40;0.88;;;;;;;;;;5060289;28;20046;-71
2021/03/17 04:39:53;;;;;;;3.92;1.20;;;;;;;;;;5069943;28;20508;-64
2021/03/17 04:42:19;;;;;;;4.63;1.30;;;;;;;;;;5052639;28;20058;-65
2021/03/17 04:44:44;;;;;;;2.88;1.05;;;;;;;;;;5061254;28;20466;-65
2021/03/17 04:47:13;;;;;;;2.47;1.15;;;;;;;;;;5059037;28;20115;-68
2021/03/17 04:49:40;;;;;;;2.67;1.00;;;;;;;;;;5051599;28;20094;-68
2021/03/17 04:52:06;;;;;;;2.08;1.08;;;;;;;;;;5077043;28;20049;-72
2021/03/17 04:54:31;;;;;;;2.00;1.10;;;;;;;;;;5091889;28;20050;-68
2021/03/17 04:56:57;;;;;;;2.53;1.15;;;;;;;;;;5077890;28;20044;-68
2021/03/17 04:59:22;;;;;;;2.45;1.10;;;;;;;;;;5086148;28;20491;-66
2021/03/17 05:01:48;;;;;;;2.90;1.20;;;;;;;;;;5060402;28;20194;-67
2021/03/17 05:04:14;;;;;;;3.80;1.40;;;;;;;;;;5086746;28;20478;-68
2021/03/17 05:06:40;;;;;;;2.85;1.42;;;;;;;;;;5035338;28;20041;-68
2021/03/17 05:09:05;;;;;;;3.58;1.33;;;;;;;;;;5059769;28;20129;-67
2021/03/17 05:11:31;;;;;;;2.55;1.23;;;;;;;;;;5065884;28;20050;-71
2021/03/17 05:13:56;;;;;;;2.88;1.30;;;;;;;;;;5038631;28;20135;-70
2021/03/17 05:16:22;;;;;;;2.85;1.30;;;;;;;;;;5063886;28;20159;-67
2021/03/17 05:18:48;;;;;;;2.13;1.20;;;;;;;;;;5077445;28;20047;-73
2021/03/17 05:21:13;;;;;;;4.63;1.30;;;;;;;;;;5062151;28;24694;-70
2021/03/17 05:23:39;;;;;;;2.85;1.33;;;;;;;;;;5052166;28;20862;-66
2021/03/17 05:26:05;;;;;;;1.58;1.00;;;;;;;;;;5086518;28;20447;-67
2021/03/17 05:28:30;;;;;;;1.73;1.13;;;;;;;;;;5060059;28;20049;-67
2021/03/17 05:30:56;;;;;;;2.95;1.20;;;;;;;;;;5080847;28;20083;-64
2021/03/17 05:33:24;;;;;;;1.52;0.93;;;;;;;;;;5060206;28;20051;-66
2021/03/17 05:35:50;;;;;;;2.55;1.10;;;;;;;;;;5064008;28;20573;-69
2021/03/17 05:38:15;;;;;;;2.63;1.10;;;;;;;;;;5086249;28;20098;-71
2021/03/17 05:40:40;;;;;;;2.13;1.15;;;;;;;;;;5079052;28;20074;-66
2021/03/17 05:43:07;;;;;;;2.45;1.30;;;;;;;;;;5087890;28;20473;-70
2021/03/17 05:45:34;;;;;;;1.98;0.90;;;;;;;;;;5085584;28;20106;-66
2021/03/17 05:47:59;;;;;;;2.33;1.00;;;;;;;;;;5082922;28;20048;-70
2021/03/17 05:50:25;;;;;;;2.17;0.90;;;;;;;;;;5084919;28;20044;-66
2021/03/17 05:52:50;;;;;;;1.85;0.90;;;;;;;;;;5074684;28;20045;-65
2021/03/17 05:55:16;;;;;;;2.10;1.00;;;;;;;;;;5086754;28;20493;-67
2021/03/17 05:57:42;;;;;;;2.60;0.90;;;;;;;;;;5086374;28;20040;-63
2021/03/17 06:00:09;;;;;;;2.17;0.98;;;;;;;;;;5085364;28;20696;-67
2021/03/17 06:02:38;;;;;;;2.20;0.88;;;;;;;;;;5085345;28;20501;-64
2021/03/17 06:05:05;;;;;;;1.33;0.70;;;;;;;;;;5079310;28;20040;-69
2021/03/17 06:07:42;;;;;;;2.17;0.70;;;;;;;;;;5074089;28;20043;-66
2021/03/17 06:10:09;;;;;;;1.75;0.73;;;;;;;;;;5069593;28;20044;-72
2021/03/17 06:12:35;;;;;;;2.42;0.70;;;;;;;;;;5056731;28;21053;-69
2021/03/17 06:15:00;;;;;;;1.50;0.70;;;;;;;;;;5069139;28;20099;-69
2021/03/17 06:17:26;;;;;;;1.77;0.70;;;;;;;;;;5055408;28;20601;-69
2021/03/17 06:19:55;;;;;;;1.67;0.60;;;;;;;;;;5067634;28;20051;-68
2021/03/17 06:22:21;;;;;;;0.98;0.57;;;;;;;;;;5057414;28;20041;-64
2021/03/17 06:24:46;;;;;;;1.52;0.70;;;;;;;;;;5083249;28;20048;-66
2021/03/17 06:27:12;;;;;;;2.30;0.70;;;;;;;;;;5049679;28;20048;-62
2021/03/17 06:29:39;;;;;;;0.77;0.50;;;;;;;;;;5051006;28;20163;-66
2021/03/17 06:32:05;;;;;;;1.48;0.60;;;;;;;;;;5084942;28;20128;-67
2021/03/17 06:34:30;;;;;;;0.38;0.30;;;;;;;;;;5065965;28;20673;-64
2021/03/17 06:36:56;;;;;;;1.13;0.60;;;;;;;;;;5072520;28;20552;-64
2021/03/17 06:39:21;;;;;;;2.38;0.63;;;;;;;;;;5057459;28;20490;-65
2021/03/17 06:41:52;;;;;;;1.33;0.60;;;;;;;;;;5055991;28;20757;-65
2021/03/17 06:44:28;;;;;;;1.52;0.70;;;;;;;;;;5083207;28;20049;-65
2021/03/17 06:47:15;;;;;;;2.30;0.70;;;;;;;;;;5075848;28;20131;-66
2021/03/17 06:49:42;;;;;;;1.98;0.60;;;;;;;;;;5081861;28;20940;-71
2021/03/17 06:52:33;;;;;;;1.15;0.60;;;;;;;;;;5067197;28;20047;-68
2021/03/17 06:55:09;;;;;;;1.85;0.50;;;;;;;;;;5085932;28;20442;-66
2021/03/17 06:57:36;;;;;;;1.45;0.60;;;;;;;;;;5067115;28;20203;-66
2021/03/17 07:00:27;;;;;;;1.67;0.57;;;;;;;;;;5059831;28;20502;-66
2021/03/17 07:02:56;;;;;;;1.67;0.50;;;;;;;;;;5086640;28;20052;-64
2021/03/17 07:05:33;;;;;;;0.90;0.63;;;;;;;;;;5087484;28;20036;-66
2021/03/17 07:07:59;;;;;;;1.95;0.80;;;;;;;;;;5085413;28;20041;-65
2021/03/17 07:10:29;;;;;;;3.42;0.77;;;;;;;;;;5074883;28;20040;-68
2021/03/17 07:12:55;;;;;;;1.73;0.60;;;;;;;;;;5086379;28;20048;-68
2021/03/17 07:15:21;;;;;;;1.33;0.60;;;;;;;;;;5059537;28;20522;-67
2021/03/17 07:17:47;;;;;;;1.27;0.75;;;;;;;;;;5060121;28;20044;-64
2021/03/17 07:20:12;;;;;;;1.13;0.63;;;;;;;;;;5074289;28;20045;-65
2021/03/17 07:22:38;;;;;;;1.55;0.63;;;;;;;;;;5078239;28;20041;-67
2021/03/17 07:25:05;;;;;;;2.75;0.80;;;;;;;;;;5076800;28;20055;-68
2021/03/17 07:27:31;;;;;;;0.95;0.50;;;;;;;;;;5085600;28;20548;-66
2021/03/17 07:30:01;;;;;;;0.80;0.40;;;;;;;;;;5101652;28;20079;-69
2021/03/17 07:32:27;;;;;;;2.45;0.63;;;;;;;;;;5084822;28;20052;-68
2021/03/17 07:34:52;;;;;;;1.08;0.60;;;;;;;;;;5056891;28;20477;-66
2021/03/17 07:37:18;;;;;;;1.42;0.60;;;;;;;;;;5057524;28;20090;-69
2021/03/17 07:39:44;;;;;;;1.52;0.40;;;;;;;;;;5038877;28;20071;-68
2021/03/17 07:42:11;;;;;;;1.23;0.57;;;;;;;;;;5074799;28;20056;-64
2021/03/17 07:44:38;;;;;;;2.20;0.70;;;;;;;;;;5067170;28;20068;-66
2021/03/17 07:47:05;;;;;;;1.33;0.52;;;;;;;;;;5067159;28;20044;-68
2021/03/17 07:49:31;;;;;;;2.25;0.50;;;;;;;;;;5076667;28;20049;-69
2021/03/17 07:51:59;;;;;;;1.58;0.50;;;;;;;;;;5060255;28;20048;-68
2021/03/17 07:54:32;;;;;;;1.13;0.55;;;;;;;;;;5075513;28;20932;-68
2021/03/17 07:56:59;;;;;;;1.83;0.63;;;;;;;;;;5083390;28;20041;-68
2021/03/17 07:59:25;;;;;;;1.60;0.50;;;;;;;;;;5066109;28;20048;-66
2021/03/17 08:01:55;;;;;;;2.17;0.60;;;;;;;;;;5048537;28;20044;-66
2021/03/17 08:04:28;;;;;;;1.58;0.60;;;;;;;;;;5059355;28;20044;-65
2021/03/17 08:06:58;;;;;;;0.70;0.50;;;;;;;;;;5062053;28;20517;-69
2021/03/17 08:09:24;;;;;;;0.95;0.45;;;;;;;;;;5073468;28;20068;-67
2021/03/17 08:11:53;;;;;;;1.33;0.60;;;;;;;;;;5051179;28;20040;-70
2021/03/17 08:14:19;;;;;;;1.33;0.60;;;;;;;;;;5084317;28;20092;-71
2021/03/17 08:16:45;;;;;;;1.83;0.65;;;;;;;;;;5049604;28;20645;-64
2021/03/17 08:19:23;;;;;;;1.48;0.70;;;;;;;;;;5060593;28;20102;-65
2021/03/17 08:21:57;;;;;;;1.73;0.50;;;;;;;;;;5072977;28;20168;-66
2021/03/17 08:24:40;;;;;;;2.60;0.65;;;;;;;;;;5075658;28;20040;-69
2021/03/17 08:27:06;;;;;;;2.00;0.60;;;;;;;;;;5072189;28;20056;-69
2021/03/17 08:29:38;;;;;;;1.83;0.60;;;;;;;;;;5088555;28;20056;-68
2021/03/17 08:32:04;;;;;;;1.95;0.75;;;;;;;;;;5065981;28;20466;-67
2021/03/17 08:34:29;;;;;;;2.42;0.70;;;;;;;;;;5059133;28;20202;-68
2021/03/17 08:37:05;;;;;;;0.98;0.60;;;;;;;;;;5076708;28;20485;-66
2021/03/17 08:39:34;;;;;;;3.22;0.70;;;;;;;;;;5086359;28;20059;-69
2021/03/17 08:42:06;;;;;;;2.30;0.75;;;;;;;;;;5088589;28;20067;-69
2021/03/17 08:44:38;;;;;;;2.20;0.80;;;;;;;;;;5078784;28;20040;-69
2021/03/17 08:47:23;;;;;;;1.85;0.70;;;;;;;;;;5084730;28;20055;-65
2021/03/17 08:49:52;;;;;;;2.30;0.63;;;;;;;;;;5087672;28;20127;-67
2021/03/17 08:52:24;;;;;;;1.00;0.60;;;;;;;;;;5043726;28;20054;-65
2021/03/17 08:54:53;;;;;;;1.98;0.60;;;;;;;;;;5087930;28;20036;-69
2021/03/17 08:57:19;;;;;;;1.00;0.60;;;;;;;;;;5088058;28;20227;-70
2021/03/17 08:59:52;;;;;;;2.70;0.80;;;;;;;;;;5070142;28;20059;-68
2021/03/17 09:02:42;;;;;;;1.02;0.50;;;;;;;;;;5075000;28;20120;-68
2021/03/17 09:05:23;;;;;;;2.30;0.70;;;;;;;;;;5085652;28;20043;-69
2021/03/17 09:08:08;;;;;;;0.93;0.60;;;;;;;;;;5082828;28;20064;-68
2021/03/17 09:10:47;;;;;;;0.95;0.60;;;;;;;;;;5075649;28;20044;-68
2021/03/17 09:13:14;;;;;;;1.52;0.63;;;;;;;;;;5068492;28;20051;-68
2021/03/17 09:15:47;;;;;;;1.88;0.63;;;;;;;;;;5067349;28;20076;-68
2021/03/17 09:18:13;;;;;;;2.15;0.60;;;;;;;;;;5069601;28;20041;-66
2021/03/17 09:20:45;;;;;;;1.42;0.60;;;;;;;;;;5086002;28;20102;-68
2021/03/17 09:23:10;;;;;;;2.40;0.55;;;;;;;;;;5076651;28;20540;-67
2021/03/17 09:25:44;;;;;;;1.42;0.60;;;;;;;;;;5086328;28;20056;-66
2021/03/17 09:28:32;;;;;;;1.17;0.50;;;;;;;;;;5074627;28;20048;-68
2021/03/17 09:31:07;;;;;;;3.25;0.70;;;;;;;;;;5087286;28;20121;-67
2021/03/17 09:33:37;;;;;;;1.67;0.50;;;;;;;;;;5061040;28;20131;-66
2021/03/17 09:36:13;;;;;;;1.65;0.50;;;;;;;;;;5066637;28;20052;-66
2021/03/17 09:38:43;;;;;;;1.75;0.60;;;;;;;;;;5060713;28;20044;-67
2021/03/17 09:41:13;;;;;;;0.52;0.40;;;;;;;;;;5051982;28;20051;-71
2021/03/17 09:43:46;;;;;;;1.30;0.70;;;;;;;;;;5088075;28;20592;-66
2021/03/17 09:46:33;;;;;;;1.73;0.82;;;;;;;;;;5078862;28;20040;-66
2021/03/17 09:49:00;;;;;;;0.57;0.40;;;;;;;;;;5073527;28;20045;-68
2021/03/17 09:51:28;;;;;;;2.15;0.47;;;;;;;;;;5069551;28;20049;-69
2021/03/17 09:53:55;;;;;;;1.80;0.57;;;;;;;;;;5086109;28;20036;-66
2021/03/17 09:56:37;;;;;;;1.55;0.57;;;;;;;;;;5085804;28;20049;-67
2021/03/17 09:59:18;;;;;;;1.70;0.60;;;;;;;;;;5082798;28;20044;-69
2021/03/17 10:02:01;;;;;;;2.25;0.60;;;;;;;;;;5085731;28;20056;-68
2021/03/17 10:04:31;;;;;;;1.42;0.70;;;;;;;;;;5068914;28;20099;-70
2021/03/17 10:06:57;;;;;;;1.30;0.50;;;;;;;;;;5086397;28;20068;-68
2021/03/17 10:09:25;;;;;;;1.95;0.50;;;;;;;;;;5067980;28;20044;-68
2021/03/17 10:11:56;;;;;;;1.48;0.57;;;;;;;;;;5063822;28;20144;-66
2021/03/17 10:14:22;;;;;;;2.53;0.70;;;;;;;;;;5072015;28;20492;-67
2021/03/17 10:16:47;;;;;;;1.27;0.50;;;;;;;;;;5085934;28;20048;-65
2021/03/17 10:19:14;;;;;;;1.33;0.70;;;;;;;;;;5082719;28;20041;-68
2021/03/17 10:21:40;;;;;;;1.58;0.57;;;;;;;;;;5075431;28;20040;-68
2021/03/17 10:24:06;;;;;;;1.45;0.50;;;;;;;;;;5078307;28;20052;-66
2021/03/17 10:26:33;;;;;;;2.03;0.70;;;;;;;;;;5085163;28;20045;-69
2021/03/17 10:28:59;;;;;;;2.38;0.70;;;;;;;;;;5068123;28;20494;-67
2021/03/17 10:31:25;;;;;;;3.25;0.65;;;;;;;;;;5079586;28;20857;-68
2021/03/17 10:33:50;;;;;;;1.27;0.40;;;;;;;;;;5076648;28;20041;-66
2021/03/17 10:36:16;;;;;;;1.55;0.75;;;;;;;;;;5047703;28;20102;-67
2021/03/17 10:39:01;;;;;;;1.50;0.47;;;;;;;;;;5052747;28;20048;-69
2021/03/17 10:41:39;;;;;;;1.38;0.60;;;;;;;;;;5100943;28;20819;-70
2021/03/17 10:44:19;;;;;;;1.83;0.80;;;;;;;;;;5083931;28;20044;-70
2021/03/17 10:47:07;;;;;;;1.88;0.80;;;;;;;;;;5068027;28;20905;-66
2021/03/17 10:49:54;;;;;;;1.67;0.70;;;;;;;;;;5067758;28;20048;-68
2021/03/17 10:52:20;;;;;;;1.83;0.70;;;;;;;;;;5077577;28;20056;-68
2021/03/17 10:54:45;;;;;;;0.95;0.52;;;;;;;;;;5084156;28;20048;-66
2021/03/17 10:57:21;;;;;;;1.67;0.70;;;;;;;;;;5060117;28;20550;-69
2021/03/17 10:59:47;;;;;;;1.25;0.60;;;;;;;;;;5072858;28;20047;-66
2021/03/17 11:02:20;;;;;;;1.45;0.63;;;;;;;;;;5074679;28;20429;-68
2021/03/17 11:05:05;;;;;;;2.15;0.68;;;;;;;;;;5076684;28;20053;-67
2021/03/17 11:07:50;;;;;;;1.67;0.68;;;;;;;;;;5067127;28;20044;-68
2021/03/17 11:10:34;;;;;;;1.98;0.98;;;;;;;;;;5084760;28;20067;-66
2021/03/17 11:13:08;;;;;;;1.35;0.63;;;;;;;;;;5085566;28;20102;-65
2021/03/17 11:15:34;;;;;;;1.25;0.60;;;;;;;;;;5085373;28;20122;-69
2021/03/17 11:18:00;;;;;;;2.17;0.52;;;;;;;;;;5058140;28;20099;-68
2021/03/17 11:20:25;;;;;;;1.73;0.63;;;;;;;;;;5050720;28;20402;-67
2021/03/17 11:22:51;;;;;;;2.40;0.80;;;;;;;;;;5084604;28;20044;-65
2021/03/17 11:25:26;;;;;;;2.72;1.05;;;;;;;;;;5072871;28;20048;-66
2021/03/17 11:27:52;;;;;;;2.00;0.65;;;;;;;;;;5067360;28;20068;-66
2021/03/17 11:30:18;;;;;;;1.70;0.80;;;;;;;;;;5085317;28;20168;-69
2021/03/17 11:32:44;;;;;;;1.55;0.77;;;;;;;;;;5073372;28;20048;-67
2021/03/17 11:35:11;;;;;;;0.88;0.60;;;;;;;;;;5065838;28;20052;-65
2021/03/17 11:37:36;;;;;;;3.47;0.70;;;;;;;;;;5084544;28;20049;-67
2021/03/17 11:40:03;;;;;;;1.30;0.60;;;;;;;;;;5085074;28;20036;-69
2021/03/17 11:42:29;;;;;;;2.50;0.95;;;;;;;;;;5089204;28;20623;-68
2021/03/17 11:44:54;;;;;;;2.88;0.98;;;;;;;;;;5070175;28;20383;-69
2021/03/17 11:47:20;;;;;;;1.45;0.80;;;;;;;;;;5084932;28;20033;-67
2021/03/17 11:49:45;;;;;;;1.65;0.60;;;;;;;;;;5072181;28;20371;-65
2021/03/17 11:52:11;;;;;;;1.23;0.60;;;;;;;;;;5066548;28;20051;-70
2021/03/17 11:54:37;;;;;;;1.52;0.70;;;;;;;;;;5057378;28;20048;-66
2021/03/17 11:57:02;;;;;;;1.40;0.70;;;;;;;;;;5085381;28;20102;-67
2021/03/17 11:59:28;;;;;;;1.27;0.80;;;;;;;;;;5057039;28;20052;-70
2021/03/17 12:01:53;;;;;;;3.47;0.70;;;;;;;;;;5087529;28;20032;-65
2021/03/17 12:04:19;;;;;;;1.40;0.60;;;;;;;;;;5075782;28;20040;-69
2021/03/17 12:06:44;;;;;;;2.20;0.60;;;;;;;;;;5086784;28;20048;-68
2021/03/17 12:09:10;;;;;;;1.45;0.63;;;;;;;;;;5088425;28;20406;-65
2021/03/17 12:11:35;;;;;;;1.77;0.80;;;;;;;;;;5059372;28;20044;-67
2021/03/17 12:14:02;;;;;;;1.33;0.70;;;;;;;;;;5084189;28;20041;-70
2021/03/17 12:16:28;;;;;;;1.80;0.90;;;;;;;;;;5087394;28;21103;-68
2021/03/17 12:18:53;;;;;;;2.50;1.08;;;;;;;;;;5088871;28;20094;-67
2021/03/17 12:21:19;;;;;;;2.30;0.70;;;;;;;;;;5087364;28;20078;-66
2021/03/17 12:23:44;;;;;;;2.72;0.70;;;;;;;;;;5062972;28;20049;-68
2021/03/17 12:26:10;;;;;;;1.63;0.70;;;;;;;;;;5062957;28;20059;-68
2021/03/17 12:28:35;;;;;;;1.98;0.75;;;;;;;;;;5054010;28;20041;-68
2021/03/17 12:31:01;;;;;;;2.25;0.70;;;;;;;;;;5077062;28;20055;-67
2021/03/17 12:33:27;;;;;;;1.48;0.77;;;;;;;;;;5087018;28;20055;-68
2021/03/17 12:35:52;;;;;;;3.08;0.73;;;;;;;;;;5053253;28;20048;-68
2021/03/17 12:38:18;;;;;;;2.10;1.00;;;;;;;;;;5086330;28;20454;-66
2021/03/17 12:40:44;;;;;;;2.08;0.70;;;;;;;;;;5086485;28;20487;-69
2021/03/17 12:43:09;;;;;;;1.10;0.63;;;;;;;;;;5080467;28;20102;-69
2021/03/17 12:45:35;;;;;;;1.67;0.68;;;;;;;;;;5082765;28;20048;-68
2021/03/17 12:48:00;;;;;;;1.63;0.80;;;;;;;;;;5088498;28;20040;-69
2021/03/17 12:50:28;;;;;;;2.88;0.73;;;;;;;;;;5087681;28;20762;-66
2021/03/17 12:52:53;;;;;;;1.50;0.70;;;;;;;;;;5087885;28;20467;-68
2021/03/17 12:55:19;;;;;;;2.67;0.90;;;;;;;;;;5082085;28;20044;-68
2021/03/17 12:57:44;;;;;;;2.08;0.80;;;;;;;;;;5087842;28;20036;-65
2021/03/17 13:00:18;;;;;;;2.33;0.57;;;;;;;;;;5087327;28;20052;-69
2021/03/17 13:02:43;;;;;;;2.20;0.80;;;;;;;;;;5075129;28;20055;-66
2021/03/17 13:05:10;;;;;;;1.33;0.70;;;;;;;;;;5075821;28;20048;-67
2021/03/17 13:07:35;;;;;;;2.35;0.70;;;;;;;;;;5086902;28;20048;-66
2021/03/17 13:10:01;;;;;;;1.73;0.60;;;;;;;;;;5083646;28;20045;-68
2021/03/17 13:12:26;;;;;;;1.02;0.60;;;;;;;;;;5085794;28;20040;-65
2021/03/17 13:14:52;;;;;;;1.25;0.70;;;;;;;;;;5059334;28;20049;-67
2021/03/17 13:17:19;;;;;;;0.77;0.50;;;;;;;;;;5086003;28;20040;-67
2021/03/17 13:19:45;;;;;;;2.13;1.00;;;;;;;;;;5087486;28;20074;-66
2021/03/17 13:22:10;;;;;;;1.55;0.68;;;;;;;;;;5087162;28;20052;-66
2021/03/17 13:24:36;;;;;;;2.05;0.63;;;;;;;;;;5068783;28;20457;-67
2021/03/17 13:27:01;;;;;;;2.03;0.75;;;;;;;;;;5082310;28;20045;-70
2021/03/17 13:29:27;;;;;;;1.92;0.70;;;;;;;;;;5085677;28;20051;-68
2021/03/17 13:31:52;;;;;;;1.85;0.82;;;;;;;;;;5085445;28;20063;-65
2021/03/17 13:34:18;;;;;;;3.47;0.77;;;;;;;;;;5077271;28;20094;-67
2021/03/17 13:36:43;;;;;;;1.80;0.73;;;;;;;;;;5085209;28;20045;-66
2021/03/17 13:39:09;;;;;;;2.03;0.70;;;;;;;;;;5065660;28;20045;-70
2021/03/17 13:41:34;;;;;;;1.85;0.77;;;;;;;;;;5075885;28;20044;-68
2021/03/17 13:44:00;;;;;;;1.85;0.70;;;;;;;;;;5058368;28;20070;-69
2021/03/17 13:46:26;;;;;;;2.25;1.00;;;;;;;;;;5067773;28;20041;-67
2021/03/17 13:48:51;;;;;;;2.00;0.68;;;;;;;;;;5086068;28;20045;-66
2021/03/17 13:51:17;;;;;;;2.13;0.80;;;;;;;;;;5058578;28;20044;-69
2021/03/17 13:53:42;;;;;;;2.45;0.80;;;;;;;;;;5074892;28;20044;-65
2021/03/17 13:56:08;;;;;;;1.42;0.70;;;;;;;;;;5086984;28;20055;-69
2021/03/17 13:58:33;;;;;;;2.67;0.80;;;;;;;;;;5086666;28;20040;-69
2021/03/17 14:00:59;;;;;;;0.75;0.60;;;;;;;;;;5081555;28;20047;-65
2021/03/17 14:03:24;;;;;;;1.92;0.90;;;;;;;;;;5068440;28;20044;-66
2021/03/17 14:05:50;;;;;;;2.47;1.10;;;;;;;;;;5085103;28;20040;-68
2021/03/17 14:08:15;;;;;;;1.23;0.80;;;;;;;;;;5086418;28;20038;-66
2021/03/17 14:10:41;;;;;;;3.67;1.10;;;;;;;;;;5058712;28;20051;-67
2021/03/17 14:13:07;;;;;;;2.53;0.80;;;;;;;;;;5086258;28;20048;-70
2021/03/17 14:15:32;;;;;;;2.83;0.88;;;;;;;;;;5085105;28;20059;-70
2021/03/17 14:17:58;;;;;;;2.53;1.00;;;;;;;;;;5086233;28;20052;-70
2021/03/17 14:20:25;;;;;;;2.15;0.80;;;;;;;;;;5085105;28;20044;-69
2021/03/17 14:22:51;;;;;;;1.67;0.68;;;;;;;;;;5059399;28;20037;-68
2021/03/17 14:25:17;;;;;;;2.10;0.80;;;;;;;;;;5057437;28;20068;-70
2021/03/17 14:27:42;;;;;;;1.58;0.90;;;;;;;;;;5084130;28;20049;-67
2021/03/17 14:30:09;;;;;;;2.08;0.70;;;;;;;;;;5058176;28;20491;-66
2021/03/17 14:32:35;;;;;;;2.15;0.82;;;;;;;;;;5084367;28;20044;-69
2021/03/17 14:35:00;;;;;;;2.15;0.70;;;;;;;;;;5064244;28;20037;-68
2021/03/17 14:37:26;;;;;;;2.05;0.90;;;;;;;;;;5075090;28;20048;-68
2021/03/17 14:39:52;;;;;;;1.73;0.60;;;;;;;;;;5084011;28;20478;-66
2021/03/17 14:42:17;;;;;;;1.13;0.80;;;;;;;;;;5084303;28;20052;-68
2021/03/17 14:44:43;;;;;;;2.60;0.73;;;;;;;;;;5056016;28;20048;-66
2021/03/17 14:47:09;;;;;;;1.27;0.77;;;;;;;;;;5085969;28;20044;-71
2021/03/17 14:49:34;;;;;;;2.95;0.95;;;;;;;;;;5084161;28;20040;-67
2021/03/17 14:52:00;;;;;;;1.80;0.93;;;;;;;;;;5077885;28;20047;-67
2021/03/17 14:54:26;;;;;;;1.42;0.80;;;;;;;;;;5084713;28;20463;-67
2021/03/17 14:56:52;;;;;;;2.08;0.90;;;;;;;;;;5074639;28;20093;-70